Time;durP1;ratioP1;P1;durP2;ratioP2;P2;SDS_P1;SDS_P2;PMS_P1;PMS_P2;Temp;Humidity;BMP_temperature;BMP_pressure;BME280_temperature;BME280_humidity;BME280_pressure;Samples;Min_cycle;Max_cycle;Signal;HPM_P1;HPM_P2
2022/01/21 00:01:59;;;;;;;37.13;10.43;;;;;;;-0.11;100.00;99583.41;31067101;28;20146;-76
2022/01/21 00:17:02;;;;;;;13.57;7.80;;;;;;;-0.13;100.00;99553.63;31089867;28;20046;-77
2022/01/21 00:32:05;;;;;;;9.17;5.50;;;;;;;-0.07;100.00;99563.66;31108669;28;20145;-78
2022/01/21 00:47:07;;;;;;;12.33;5.87;;;;;;;-0.03;100.00;99518.34;31142232;28;20410;-77
2022/01/21 01:02:09;;;;;;;8.73;4.77;;;;;;;-0.04;100.00;99503.47;31112406;28;20059;-78
2022/01/21 01:32:32;;;;;;;15.80;5.97;;;;;;;-0.13;100.00;99558.97;31164228;28;20136;-77
2022/01/21 02:03:05;;;;;;;10.73;6.73;;;;;;;-0.46;100.00;99499.03;31135118;28;20148;-77
2022/01/21 02:33:27;;;;;;;16.77;8.40;;;;;;;-0.65;100.00;99512.47;31148345;28;20605;-76
2022/01/21 02:48:29;;;;;;;20.53;8.43;;;;;;;-0.64;100.00;99524.66;31116600;28;20046;-77
2022/01/21 03:03:31;;;;;;;18.40;8.80;;;;;;;-0.79;100.00;99555.66;31092380;28;20133;-77
2022/01/21 03:18:33;;;;;;;25.57;9.70;;;;;;;-1.14;100.00;99544.34;31110217;28;20491;-78
2022/01/21 03:33:35;;;;;;;20.40;9.43;;;;;;;-1.16;100.00;99530.63;31053425;28;20105;-77
2022/01/21 03:48:37;;;;;;;18.43;9.83;;;;;;;-1.38;100.00;99529.47;31084232;28;20052;-77
2022/01/21 04:03:39;;;;;;;31.77;9.90;;;;;;;-1.43;100.00;99559.06;31084466;28;20721;-78
2022/01/21 04:18:41;;;;;;;24.33;10.60;;;;;;;-1.34;100.00;99582.78;31090108;28;20055;-78
2022/01/21 04:33:43;;;;;;;18.27;10.03;;;;;;;-1.32;100.00;99601.84;31124010;28;20137;-78
2022/01/21 04:48:45;;;;;;;26.03;11.93;;;;;;;-1.23;100.00;99613.84;31126559;28;20543;-76
2022/01/21 05:03:47;;;;;;;23.50;12.73;;;;;;;-1.11;100.00;99618.25;31138163;28;20507;-78
2022/01/21 05:18:49;;;;;;;33.17;15.00;;;;;;;-0.99;100.00;99630.66;31095226;28;20045;-79
2022/01/21 05:33:51;;;;;;;34.97;16.20;;;;;;;-0.93;100.00;99635.31;31129280;28;20556;-77
2022/01/21 05:48:53;;;;;;;27.10;11.77;;;;;;;-0.79;100.00;99643.59;31084943;28;20057;-78
2022/01/21 06:03:55;;;;;;;25.23;12.60;;;;;;;-0.61;100.00;99651.16;31124480;28;20471;-76
2022/01/21 06:18:57;;;;;;;27.70;12.83;;;;;;;-0.45;100.00;99643.81;31078585;28;20054;-77
2022/01/21 06:33:59;;;;;;;20.90;11.20;;;;;;;-0.24;100.00;99643.41;31125846;28;20081;-79
2022/01/21 06:49:00;;;;;;;25.63;12.30;;;;;;;-0.25;100.00;99669.31;31117769;28;20486;-78
2022/01/21 07:04:03;;;;;;;21.63;11.17;;;;;;;-0.14;100.00;99674.81;31104870;28;20137;-77
2022/01/21 07:19:05;;;;;;;23.23;9.90;;;;;;;-0.08;100.00;99689.41;31119857;28;20146;-79
2022/01/21 07:34:07;;;;;;;26.87;11.73;;;;;;;0.03;100.00;99693.00;31127626;28;20077;-79
2022/01/21 07:49:09;;;;;;;20.33;10.57;;;;;;;0.15;100.00;99722.19;31128830;28;20081;-79
2022/01/21 08:04:11;;;;;;;17.80;9.27;;;;;;;0.03;100.00;99737.59;31070011;28;20062;-79
2022/01/21 08:19:16;;;;;;;22.83;11.37;;;;;;;0.09;100.00;99747.63;31110124;28;20124;-79
2022/01/21 08:34:18;;;;;;;29.30;12.23;;;;;;;0.37;100.00;99749.22;31080689;28;20563;-78
2022/01/21 08:49:21;;;;;;;30.30;13.07;;;;;;;0.42;100.00;99762.28;31060330;28;20056;-82
2022/01/21 09:04:27;;;;;;;25.23;12.60;;;;;;;0.41;100.00;99766.09;31088765;28;20059;-81
2022/01/21 09:19:29;;;;;;;22.88;12.30;;;;;;;0.52;100.00;99767.00;31139458;28;20068;-77
2022/01/21 09:34:31;;;;;;;28.30;12.97;;;;;;;0.55;100.00;99779.66;31049353;28;20492;-78
2022/01/21 09:49:34;;;;;;;27.57;12.63;;;;;;;0.62;100.00;99759.16;31133670;28;20104;-77
2022/01/21 10:04:41;;;;;;;30.20;15.20;;;;;;;0.78;100.00;99750.97;31086609;28;20062;-78
2022/01/21 10:19:48;;;;;;;29.63;13.27;;;;;;;0.84;98.78;99748.78;31136162;28;20108;-77
2022/01/21 10:34:50;;;;;;;42.33;15.00;;;;;;;0.87;99.86;99743.47;31118381;28;20149;-77
2022/01/21 10:50:13;;;;;;;28.40;13.57;;;;;;;3.02;87.91;99751.22;31106794;28;20132;-79
2022/01/21 11:05:23;;;;;;;23.70;11.07;;;;;;;3.31;81.56;99733.31;31068713;28;20081;-77
2022/01/21 11:20:38;;;;;;;16.13;7.97;;;;;;;4.36;69.80;99720.44;31068728;28;20140;-78
2022/01/21 11:35:40;;;;;;;10.67;5.50;;;;;;;5.20;63.19;99727.97;31082465;28;20049;-77
2022/01/21 11:50:45;;;;;;;15.07;6.03;;;;;;;5.27;60.77;99735.97;31074699;28;20519;-81
2022/01/21 12:05:47;;;;;;;9.53;4.70;;;;;;;6.04;57.45;99736.75;31074659;28;20141;-79
2022/01/21 12:20:54;;;;;;;11.30;4.97;;;;;;;6.41;59.72;99744.91;31095357;28;20046;-80
2022/01/21 12:35:57;;;;;;;10.90;4.70;;;;;;;5.21;54.58;99756.38;31192261;28;20058;-79
2022/01/21 12:51:16;;;;;;;29.20;8.10;;;;;;;3.80;58.69;99752.63;31145633;28;20054;-78
2022/01/21 13:06:21;;;;;;;17.63;6.77;;;;;;;1.78;65.12;99779.72;31049896;28;20089;-79
2022/01/21 13:21:22;;;;;;;12.83;5.83;;;;;;;0.87;67.07;99780.13;31120603;28;20086;-78
2022/01/21 13:36:40;;;;;;;13.13;6.13;;;;;;;0.45;70.64;99812.31;31075500;28;20061;-78
2022/01/21 13:51:55;;;;;;;20.63;10.13;;;;;;;-0.09;71.57;99813.28;31090268;28;20085;-79
2022/01/21 14:07:00;;;;;;;19.53;11.87;;;;;;;-0.37;76.82;99822.28;31069407;28;20141;-78
2022/01/21 14:22:05;;;;;;;11.57;7.17;;;;;;;-0.83;74.84;99842.66;31062814;28;20046;-77
2022/01/21 14:37:12;;;;;;;9.27;5.20;;;;;;;-1.02;78.25;99852.50;31095673;28;20583;-78
2022/01/21 15:07:26;;;;;;;8.60;3.37;;;;;;;-1.04;74.70;99856.28;31111486;28;20046;-78
2022/01/21 15:22:28;;;;;;;9.20;4.00;;;;;;;-1.08;76.80;99817.34;31052558;28;20050;-80
2022/01/21 15:37:30;;;;;;;5.30;3.10;;;;;;;-1.06;75.00;99839.84;31082918;28;20133;-80
2022/01/21 15:52:34;;;;;;;5.67;3.20;;;;;;;-1.27;75.99;99838.59;31074439;28;20062;-79
2022/01/21 16:07:36;;;;;;;6.67;3.77;;;;;;;-1.35;77.88;99831.56;31078379;28;20089;-80
2022/01/21 16:22:38;;;;;;;7.90;4.57;;;;;;;-1.37;77.46;99847.88;31102125;28;20058;-81
2022/01/21 16:37:40;;;;;;;8.03;4.30;;;;;;;-1.62;79.36;99867.78;31123474;28;20087;-81
2022/01/21 16:52:43;;;;;;;11.37;4.87;;;;;;;-2.02;80.06;99865.22;31105067;28;20210;-80
2022/01/21 17:07:45;;;;;;;10.77;5.17;;;;;;;-2.30;77.98;99857.22;31079298;28;20062;-79
2022/01/21 17:22:48;;;;;;;10.37;4.70;;;;;;;-2.20;82.44;99878.81;31069078;28;20108;-79
2022/01/21 17:37:52;;;;;;;6.33;4.07;;;;;;;-2.11;79.67;99865.34;31062960;28;20118;-80
2022/01/21 17:52:58;;;;;;;13.50;5.20;;;;;;;-2.19;81.54;99879.59;31124095;28;20583;-79
2022/01/21 18:08:00;;;;;;;10.23;5.23;;;;;;;-2.42;82.54;99869.47;31165498;28;20054;-80
2022/01/21 18:23:02;;;;;;;9.67;4.50;;;;;;;-2.31;83.03;99861.78;31137453;28;20429;-80
2022/01/21 18:38:05;;;;;;;14.93;5.60;;;;;;;-2.18;83.00;99884.56;31118908;28;20081;-80
2022/01/21 18:53:08;;;;;;;19.47;6.73;;;;;;;-2.15;82.60;99880.47;31126606;28;20061;-79
2022/01/21 19:08:10;;;;;;;16.13;7.07;;;;;;;-2.13;83.15;99878.25;31172192;28;20050;-77
2022/01/21 19:23:25;;;;;;;11.00;5.63;;;;;;;-2.07;83.49;99876.88;31124675;28;20486;-80
2022/01/21 19:38:29;;;;;;;12.77;5.93;;;;;;;-2.03;84.46;99877.75;31135324;28;20506;-79
2022/01/21 19:53:31;;;;;;;14.83;6.13;;;;;;;-1.86;86.01;99874.78;31139809;28;20046;-79
2022/01/21 20:23:46;;;;;;;10.07;5.20;;;;;;;-1.89;84.36;99850.75;31116751;28;20049;-79
2022/01/21 20:38:53;;;;;;;12.03;5.47;;;;;;;-1.96;85.66;99869.97;31107244;28;20137;-80
2022/01/21 20:53:55;;;;;;;7.00;4.97;;;;;;;-2.07;86.09;99876.88;31077994;28;20137;-79
2022/01/21 21:09:01;;;;;;;9.67;5.13;;;;;;;-1.99;86.58;99889.25;31123990;28;20081;-85
2022/01/21 23:18:01;;;;;;;14.37;5.80;;;;;;;-3.05;86.27;99830.38;31394590;28;20392;-78
2022/01/21 23:33:08;;;;;;;20.33;8.97;;;;;;;-3.43;86.48;99839.44;31326522;28;20139;-80
2022/01/21 23:48:11;;;;;;;15.60;7.57;;;;;;;-3.72;86.32;99832.44;31302611;28;20708;-80
